createdAt,value
2018-12-17T00:00:18.047Z,144.53
2018-12-17T00:02:48.240Z,138.13
2018-12-17T00:05:18.487Z,144.57
2018-12-17T00:07:48.665Z,146.37
2018-12-17T00:10:16.838Z,150.07
2018-12-17T00:12:45.050Z,152.90
2018-12-17T00:15:13.245Z,161.87
2018-12-17T00:17:41.600Z,161.23
2018-12-17T00:20:10.233Z,157.73
2018-12-17T00:22:38.427Z,158.00
2018-12-17T00:25:06.590Z,171.70
2018-12-17T00:27:34.836Z,163.23
2018-12-17T00:30:03.650Z,168.80
2018-12-17T00:32:32.161Z,158.23
2018-12-17T00:35:00.582Z,166.10
2018-12-17T00:37:28.769Z,151.37
2018-12-17T00:39:57.579Z,155.53
2018-12-17T00:42:25.786Z,155.23
2018-12-17T00:44:54.005Z,161.67
2018-12-17T00:47:22.239Z,155.20
2018-12-17T00:49:50.487Z,161.63
2018-12-17T00:52:18.706Z,153.20
2018-12-17T00:54:46.879Z,161.77
2018-12-17T00:57:15.115Z,157.67
2018-12-17T00:59:43.310Z,153.03
2018-12-17T01:02:11.482Z,143.73
2018-12-17T01:04:39.731Z,150.17
2018-12-17T01:07:07.947Z,142.03
2018-12-17T01:09:36.111Z,146.07
2018-12-17T01:12:04.374Z,146.50
2018-12-17T01:14:32.567Z,148.63
2018-12-17T01:17:00.799Z,151.40
2018-12-17T01:19:29.032Z,157.60
2018-12-17T01:21:57.388Z,148.97
2018-12-17T01:24:25.546Z,157.60
2018-12-17T01:26:53.795Z,139.37
2018-12-17T01:29:21.963Z,144.70
2018-12-17T01:31:50.147Z,137.50
2018-12-17T01:34:18.375Z,140.33
2018-12-17T01:36:46.547Z,140.77
2018-12-17T01:39:14.946Z,133.97
2018-12-17T01:41:43.204Z,132.70
2018-12-17T01:44:11.376Z,131.63
2018-12-17T01:46:39.693Z,141.20
2018-12-17T01:49:07.900Z,128.63
2018-12-17T01:51:36.051Z,138.47
2018-12-17T01:54:04.258Z,142.33
2018-12-17T01:56:32.481Z,142.37
2018-12-17T01:59:00.649Z,133.77
2018-12-17T02:01:28.825Z,131.47
2018-12-17T02:03:57.062Z,137.87
2018-12-17T02:06:25.345Z,141.13
2018-12-17T02:08:53.611Z,131.27
2018-12-17T02:11:21.839Z,131.20
2018-12-17T02:13:50.059Z,129.13
2018-12-17T02:16:18.250Z,130.03
2018-12-17T02:18:46.535Z,121.40
2018-12-17T02:21:14.738Z,131.80
2018-12-17T02:23:44.095Z,134.37
2018-12-17T02:26:12.354Z,137.77
2018-12-17T02:28:40.523Z,120.30
2018-12-17T02:31:08.705Z,130.27
2018-12-17T02:33:37.218Z,132.10
2018-12-17T02:36:05.489Z,122.33
2018-12-17T02:38:33.702Z,131.67
2018-12-17T02:41:02.041Z,125.43
2018-12-17T02:43:30.234Z,126.27
2018-12-17T02:45:58.432Z,131.07
2018-12-17T02:48:26.654Z,130.37
2018-12-17T02:50:54.824Z,143.77
2018-12-17T02:53:23.009Z,123.90
2018-12-17T02:55:51.284Z,128.80
2018-12-17T02:58:19.471Z,126.40
2018-12-17T03:00:47.672Z,129.30
2018-12-17T03:03:15.989Z,132.47
2018-12-17T03:05:44.153Z,125.23
2018-12-17T03:08:12.320Z,129.40
2018-12-17T03:10:40.632Z,113.57
2018-12-17T03:13:08.787Z,120.80
2018-12-17T03:15:36.938Z,113.40
2018-12-17T03:18:05.185Z,111.37
2018-12-17T03:20:33.328Z,124.17
2018-12-17T03:23:01.487Z,127.30
2018-12-17T03:25:29.683Z,119.00
2018-12-17T03:27:57.820Z,128.20
2018-12-17T03:30:26.260Z,118.13
2018-12-17T03:32:54.548Z,115.03
2018-12-17T03:35:22.738Z,110.17
2018-12-17T03:37:50.871Z,109.80
2018-12-17T03:40:19.066Z,109.80
2018-12-17T03:42:47.223Z,113.93
2018-12-17T03:45:15.407Z,115.70
2018-12-17T03:47:43.606Z,118.70
2018-12-17T03:50:13.770Z,117.43
2018-12-17T03:52:41.919Z,116.50
2018-12-17T03:55:10.126Z,119.57
2018-12-17T03:57:38.295Z,124.97
2018-12-17T04:00:06.995Z,122.63
2018-12-17T04:02:35.327Z,120.43
2018-12-17T04:05:04.184Z,119.27
2018-12-17T04:07:32.494Z,121.30
2018-12-17T04:10:00.678Z,122.93
2018-12-17T04:12:28.835Z,123.90
2018-12-17T04:14:56.995Z,123.80
2018-12-17T04:17:25.329Z,122.00
2018-12-17T04:19:53.482Z,126.77
2018-12-17T04:22:21.621Z,123.07
2018-12-17T04:24:49.795Z,125.87
2018-12-17T04:27:17.936Z,126.93
2018-12-17T04:29:46.079Z,125.37
2018-12-17T04:32:14.259Z,116.47
2018-12-17T04:34:42.387Z,124.40
2018-12-17T04:37:10.522Z,118.57
2018-12-17T04:39:38.678Z,123.17
2018-12-17T04:42:06.793Z,126.00
2018-12-17T04:44:34.936Z,124.37
2018-12-17T04:47:03.118Z,128.77
2018-12-17T04:49:31.266Z,132.17
2018-12-17T04:51:59.389Z,123.57
2018-12-17T04:54:27.848Z,126.83
2018-12-17T04:56:56.003Z,128.90
2018-12-17T04:59:24.168Z,120.13
2018-12-17T05:01:52.353Z,123.50
2018-12-17T05:04:20.495Z,120.97
2018-12-17T05:06:48.727Z,123.20
2018-12-17T05:09:16.920Z,119.20
2018-12-17T05:11:45.063Z,122.53
2018-12-17T05:14:13.221Z,120.23
2018-12-17T05:16:41.431Z,119.60
2018-12-17T05:19:09.614Z,118.40
2018-12-17T05:21:37.753Z,119.03
2018-12-17T05:24:07.172Z,120.60
2018-12-17T05:26:35.419Z,115.73
2018-12-17T05:29:03.607Z,115.17
2018-12-17T05:31:31.782Z,112.77
2018-12-17T05:33:59.987Z,118.27
2018-12-17T05:36:28.199Z,117.07
2018-12-17T05:38:56.389Z,116.00
2018-12-17T05:41:24.540Z,117.27
2018-12-17T05:43:52.779Z,112.93
2018-12-17T05:46:21.187Z,109.47
2018-12-17T05:48:49.363Z,117.80
2018-12-17T05:51:17.584Z,115.37
2018-12-17T05:53:45.770Z,111.40
2018-12-17T05:56:13.924Z,106.33
2018-12-17T05:58:42.072Z,110.50
2018-12-17T06:01:10.267Z,112.20
2018-12-17T06:03:38.506Z,111.17
2018-12-17T06:06:06.650Z,114.20
2018-12-17T06:08:34.943Z,104.37
2018-12-17T06:11:03.348Z,110.80
2018-12-17T06:13:31.503Z,112.07
2018-12-17T06:16:00.937Z,111.57
2018-12-17T06:18:29.136Z,110.27
2018-12-17T06:20:57.519Z,110.80
2018-12-17T06:23:25.679Z,112.20
2018-12-17T06:25:54.021Z,115.47
2018-12-17T06:28:22.293Z,113.20
2018-12-17T06:30:50.825Z,122.07
2018-12-17T06:33:19.031Z,117.30
2018-12-17T06:35:48.694Z,108.00
2018-12-17T06:38:16.917Z,116.17
2018-12-17T06:40:45.206Z,110.90
2018-12-17T06:43:13.411Z,111.90
2018-12-17T06:45:41.864Z,118.63
2018-12-17T06:48:16.832Z,110.27
2018-12-17T06:50:40.147Z,112.60
2018-12-17T06:53:08.497Z,114.80
2018-12-17T06:55:36.776Z,113.60
2018-12-17T06:58:05.078Z,106.63
2018-12-17T07:00:33.266Z,110.27
2018-12-17T07:03:01.446Z,108.20
2018-12-17T07:05:30.024Z,110.70
2018-12-17T07:07:58.252Z,111.30
2018-12-17T07:10:26.724Z,110.33
2018-12-17T07:12:54.883Z,109.07
2018-12-17T07:15:23.167Z,111.07
2018-12-17T07:17:51.495Z,110.97
2018-12-17T07:20:19.659Z,109.30
2018-12-17T07:22:48.155Z,109.27
2018-12-17T07:25:16.405Z,110.47
2018-12-17T07:27:44.611Z,111.67
2018-12-17T07:30:12.885Z,104.77
2018-12-17T07:32:41.036Z,113.03
2018-12-17T07:35:09.211Z,109.33
2018-12-17T07:37:37.502Z,175.03
2018-12-17T07:40:06.606Z,105.10
2018-12-17T07:42:34.772Z,107.83
2018-12-17T07:45:02.999Z,105.77
2018-12-17T07:47:31.334Z,110.10
2018-12-17T07:49:59.892Z,112.97
2018-12-17T07:52:28.309Z,110.73
2018-12-17T07:54:56.718Z,117.00
2018-12-17T07:57:25.042Z,111.73
2018-12-17T07:59:56.694Z,111.03
2018-12-17T08:02:24.344Z,112.57
2018-12-17T08:04:52.652Z,111.73
2018-12-17T08:07:21.137Z,111.93
2018-12-17T08:09:49.583Z,112.67
2018-12-17T08:12:17.863Z,112.67
2018-12-17T08:14:46.163Z,112.53
2018-12-17T08:17:15.963Z,115.03
2018-12-17T08:19:44.359Z,110.53
2018-12-17T08:22:13.093Z,118.20
2018-12-17T08:24:41.335Z,114.10
2018-12-17T08:27:09.503Z,115.17
2018-12-17T08:29:37.684Z,110.17
2018-12-17T08:32:05.890Z,108.63
2018-12-17T08:34:36.949Z,111.37
2018-12-17T08:37:05.220Z,106.83
2018-12-17T08:39:33.428Z,111.80
2018-12-17T08:42:01.688Z,106.37
2018-12-17T08:44:30.033Z,107.70
2018-12-17T08:46:58.343Z,111.90
2018-12-17T08:49:26.777Z,114.90
2018-12-17T08:51:55.047Z,113.80
2018-12-17T08:54:23.395Z,113.77
2018-12-17T08:56:51.587Z,108.27
2018-12-17T08:59:19.998Z,113.47
2018-12-17T09:01:49.336Z,114.37
2018-12-17T09:04:17.570Z,110.00
2018-12-17T09:06:45.868Z,110.20
2018-12-17T09:09:14.087Z,108.00
2018-12-17T09:11:42.307Z,107.03
2018-12-17T09:14:10.617Z,107.33
2018-12-17T09:16:38.875Z,109.80
2018-12-17T09:19:07.048Z,111.17
2018-12-17T09:21:35.288Z,115.20
2018-12-17T09:24:03.603Z,112.97
2018-12-17T09:26:31.933Z,112.13
2018-12-17T09:29:00.241Z,108.27
2018-12-17T09:31:28.432Z,108.13
2018-12-17T09:33:56.732Z,112.90
2018-12-17T09:36:24.999Z,114.93
2018-12-17T09:38:53.260Z,108.87
2018-12-17T09:41:21.435Z,107.13
2018-12-17T09:43:49.758Z,108.17
2018-12-17T09:46:17.995Z,101.77
2018-12-17T09:48:46.335Z,97.10
2018-12-17T09:51:19.487Z,104.63
2018-12-17T09:53:47.114Z,101.63
2018-12-17T09:56:15.375Z,102.30
2018-12-17T09:58:43.676Z,98.03
2018-12-17T10:01:11.895Z,100.30
2018-12-17T10:03:41.801Z,97.80
2018-12-17T10:06:10.271Z,98.77
2018-12-17T10:08:38.507Z,98.53
2018-12-17T10:11:07.081Z,99.10
2018-12-17T10:13:35.423Z,101.33
2018-12-17T10:16:03.875Z,104.00
2018-12-17T10:18:36.805Z,93.40
2018-12-17T10:21:02.384Z,89.40
2018-12-17T10:23:30.606Z,96.83
2018-12-17T10:25:58.743Z,89.90
2018-12-17T10:28:27.066Z,98.30
2018-12-17T10:30:55.241Z,112.10
2018-12-17T10:33:25.632Z,116.47
2018-12-17T10:35:56.157Z,111.00
2018-12-17T10:38:25.451Z,106.63
2018-12-17T10:40:53.831Z,98.20
2018-12-17T10:43:22.276Z,94.70
2018-12-17T10:45:50.756Z,97.43
2018-12-17T10:48:28.246Z,97.50
2018-12-17T10:51:08.400Z,91.23
2018-12-17T10:53:51.042Z,90.57
2018-12-17T10:56:22.959Z,95.30
2018-12-17T10:58:51.495Z,94.10
2018-12-17T11:01:25.468Z,95.30
2018-12-17T11:03:55.974Z,94.50
2018-12-17T11:06:24.306Z,91.03
2018-12-17T11:08:52.587Z,96.00
2018-12-17T11:11:21.025Z,89.87
2018-12-17T11:13:49.504Z,88.00
2018-12-17T11:17:39.851Z,81.50
2018-12-17T11:20:08.308Z,83.97
2018-12-17T11:22:36.834Z,83.97
2018-12-17T11:25:05.335Z,81.43
2018-12-17T11:27:33.637Z,77.13
2018-12-17T11:30:01.904Z,81.23
2018-12-17T11:32:32.005Z,79.67
2018-12-17T11:35:00.299Z,81.00
2018-12-17T11:37:28.696Z,85.83
2018-12-17T11:39:57.185Z,96.17
2018-12-17T11:42:27.207Z,91.87
2018-12-17T11:44:55.682Z,95.00
2018-12-17T11:47:24.413Z,91.00
2018-12-17T11:49:52.812Z,88.73
2018-12-17T11:52:21.588Z,92.03
2018-12-17T11:54:50.064Z,94.53
2018-12-17T11:57:38.443Z,92.23
2018-12-17T12:00:09.705Z,89.47
2018-12-17T12:02:38.375Z,92.33
2018-12-17T12:05:08.417Z,87.93
2018-12-17T12:07:37.247Z,92.17
2018-12-17T12:10:06.931Z,92.57
2018-12-17T12:12:35.409Z,93.57
2018-12-17T12:15:04.867Z,87.63
2018-12-17T12:17:33.737Z,90.43
2018-12-17T12:20:02.076Z,86.53
2018-12-17T12:22:34.242Z,86.10
2018-12-17T12:25:03.474Z,85.63
2018-12-17T12:27:33.361Z,84.07
2018-12-17T12:30:02.108Z,78.87
2018-12-17T12:32:30.488Z,80.50
2018-12-17T12:34:58.905Z,86.47
2018-12-17T12:37:27.137Z,91.00
2018-12-17T12:39:55.431Z,94.73
2018-12-17T12:42:23.887Z,83.33
2018-12-17T12:44:52.167Z,93.80
2018-12-17T12:47:20.793Z,89.20
2018-12-17T12:49:49.155Z,87.70
2018-12-17T12:52:17.607Z,92.20
2018-12-17T12:54:46.168Z,87.23
2018-12-17T12:57:14.565Z,79.60
2018-12-17T12:59:43.003Z,80.83
2018-12-17T13:02:11.553Z,81.83
2018-12-17T13:04:41.008Z,85.17
2018-12-17T13:07:09.767Z,80.40
2018-12-17T13:09:38.311Z,88.10
2018-12-17T13:12:06.827Z,88.37
2018-12-17T13:14:35.417Z,89.43
2018-12-17T13:20:04.024Z,92.27
2018-12-17T13:22:32.413Z,91.07
2018-12-17T13:25:01.134Z,92.57
2018-12-17T13:27:29.648Z,89.90
2018-12-17T13:29:58.998Z,101.10
2018-12-17T13:32:27.491Z,92.67
2018-12-17T13:34:55.865Z,91.73
2018-12-17T13:37:24.351Z,103.70
2018-12-17T13:39:52.716Z,99.53
2018-12-17T13:42:21.133Z,106.63
2018-12-17T13:44:50.529Z,111.87
2018-12-17T13:47:18.904Z,110.07
2018-12-17T13:49:47.254Z,106.70
2018-12-17T13:52:21.639Z,107.97
2018-12-17T13:54:50.048Z,107.03
2018-12-17T13:57:18.614Z,107.70
2018-12-17T13:59:47.201Z,111.47
2018-12-17T14:02:15.905Z,113.33
2018-12-17T14:04:44.703Z,114.17
2018-12-17T14:07:13.167Z,115.60
2018-12-17T14:09:47.670Z,112.37
2018-12-17T14:12:16.279Z,116.20
2018-12-17T14:14:45.289Z,125.43
2018-12-17T14:17:19.441Z,114.27
2018-12-17T14:19:49.916Z,107.47
2018-12-17T14:22:18.204Z,115.53
2018-12-17T14:24:46.527Z,114.27
2018-12-17T14:27:14.842Z,109.73
2018-12-17T14:29:44.042Z,113.67
2018-12-17T14:32:12.378Z,112.43
2018-12-17T14:34:40.654Z,119.40
2018-12-17T14:37:08.934Z,121.33
2018-12-17T14:39:37.350Z,115.70
2018-12-17T14:42:05.730Z,112.50
2018-12-17T14:44:34.064Z,113.70
2018-12-17T14:47:02.768Z,109.00
2018-12-17T14:49:31.183Z,112.23
2018-12-17T14:51:59.620Z,116.00
2018-12-17T14:54:28.109Z,113.50
2018-12-17T14:56:56.531Z,113.47
2018-12-17T14:59:25.197Z,119.13
2018-12-17T15:01:54.059Z,118.67
2018-12-17T15:04:23.591Z,116.27
2018-12-17T15:06:52.007Z,121.50
2018-12-17T15:09:20.420Z,115.70
2018-12-17T15:11:48.899Z,119.33
2018-12-17T15:14:17.136Z,121.73
2018-12-17T15:16:45.375Z,121.60
2018-12-17T15:19:13.937Z,123.60
2018-12-17T15:21:42.710Z,122.57
2018-12-17T15:24:10.923Z,117.43
2018-12-17T15:26:39.252Z,123.70
2018-12-17T15:29:07.449Z,124.13
2018-12-17T15:31:42.862Z,123.63
2018-12-17T15:34:06.071Z,121.90
2018-12-17T15:36:34.304Z,123.73
2018-12-17T15:39:02.705Z,128.33
2018-12-17T15:41:32.953Z,122.07
2018-12-17T15:44:01.124Z,125.40
2018-12-17T15:46:29.414Z,126.47
2018-12-17T15:48:57.869Z,123.60
2018-12-17T15:51:26.044Z,123.90
2018-12-17T15:53:54.272Z,117.90
2018-12-17T15:56:22.690Z,121.57
2018-12-17T15:58:50.882Z,121.23
2018-12-17T16:01:19.092Z,121.73
2018-12-17T16:03:47.276Z,119.37
2018-12-17T16:06:15.764Z,122.33
2018-12-17T16:08:45.320Z,123.60
2018-12-17T16:11:13.652Z,126.00
2018-12-17T16:13:41.846Z,123.90
2018-12-17T16:16:10.218Z,128.60
2018-12-17T16:21:12.466Z,124.97
2018-12-17T16:23:40.882Z,127.87
2018-12-17T16:26:10.522Z,135.60
2018-12-17T16:28:39.044Z,136.47
2018-12-17T16:31:07.307Z,136.43
2018-12-17T16:33:35.761Z,130.67
2018-12-17T16:36:04.232Z,133.93
2018-12-17T16:38:32.554Z,125.03
2018-12-17T16:41:01.594Z,130.93
2018-12-17T16:43:31.128Z,129.30
2018-12-17T16:46:03.672Z,130.07
2018-12-17T16:48:32.421Z,136.50
2018-12-17T16:51:00.953Z,128.53
2018-12-17T16:53:29.324Z,135.77
2018-12-17T16:55:57.894Z,133.37
2018-12-17T16:58:26.312Z,135.70
2018-12-17T17:00:55.482Z,138.87
2018-12-17T17:03:25.028Z,129.17
2018-12-17T17:05:53.540Z,133.97
2018-12-17T17:08:21.926Z,137.90
2018-12-17T17:10:52.900Z,139.47
2018-12-17T17:13:21.379Z,144.03
2018-12-17T17:15:50.068Z,142.20
2018-12-17T17:18:20.596Z,141.23
2018-12-17T17:20:49.317Z,143.03
2018-12-17T17:23:19.566Z,142.07
2018-12-17T17:25:48.158Z,145.50
2018-12-17T17:28:19.491Z,144.57
2018-12-17T17:30:49.086Z,143.03
2018-12-17T17:33:18.679Z,152.87
2018-12-17T17:35:48.151Z,146.20
2018-12-17T17:38:16.742Z,136.97
2018-12-17T17:40:45.414Z,144.63
2018-12-17T17:43:14.382Z,143.33
2018-12-17T17:45:43.014Z,138.80
2018-12-17T17:48:17.462Z,141.27
2018-12-17T17:50:46.341Z,146.07
2018-12-17T17:53:15.023Z,147.03
2018-12-17T17:55:45.422Z,143.43
2018-12-17T17:58:14.041Z,142.73
2018-12-17T18:00:42.861Z,144.77
2018-12-17T18:03:16.774Z,145.90
2018-12-17T18:05:46.782Z,141.97
2018-12-17T18:08:15.542Z,142.83
2018-12-17T18:10:44.335Z,144.10
2018-12-17T18:13:13.158Z,147.83
2018-12-17T18:15:44.580Z,150.87
2018-12-17T18:18:14.940Z,149.83
2018-12-17T18:20:43.763Z,152.40
2018-12-17T18:23:12.481Z,149.00
2018-12-17T18:25:41.158Z,145.07
2018-12-17T18:28:09.610Z,148.97
2018-12-17T18:30:38.118Z,156.30
2018-12-17T18:33:06.918Z,160.63
2018-12-17T18:35:36.038Z,153.00
2018-12-17T18:38:04.677Z,145.47
2018-12-17T18:40:34.518Z,151.07
2018-12-17T18:43:03.241Z,146.70
2018-12-17T18:45:32.562Z,139.43
2018-12-17T18:48:01.242Z,138.00
2018-12-17T18:50:29.962Z,144.27
2018-12-17T18:52:59.516Z,148.73
2018-12-17T18:55:28.117Z,142.73
2018-12-17T18:57:57.090Z,153.93
2018-12-17T19:00:25.716Z,156.30
2018-12-17T19:02:54.477Z,155.37
2018-12-17T19:05:28.716Z,168.60
2018-12-17T19:07:59.356Z,155.30
2018-12-17T19:10:30.128Z,173.87
2018-12-17T19:13:00.144Z,171.30
2018-12-17T19:15:28.851Z,174.03
2018-12-17T19:17:58.124Z,171.87
2018-12-17T19:20:27.000Z,163.13
2018-12-17T19:22:55.795Z,135.43
2018-12-17T19:25:25.361Z,137.07
2018-12-17T19:27:54.716Z,129.27
2018-12-17T19:30:23.436Z,132.97
2018-12-17T19:32:52.038Z,138.77
2018-12-17T19:35:20.788Z,143.50
2018-12-17T19:37:49.324Z,148.33
2018-12-17T19:40:18.148Z,144.87
2018-12-17T19:42:46.787Z,149.43
2018-12-17T19:45:15.378Z,146.63
2018-12-17T19:47:43.970Z,150.70
2018-12-17T19:50:12.803Z,138.30
2018-12-17T19:52:41.435Z,133.60
2018-12-17T19:55:10.446Z,133.43
2018-12-17T19:57:39.648Z,134.87
2018-12-17T20:00:09.796Z,136.30
2018-12-17T20:02:46.970Z,134.10
2018-12-17T20:05:12.884Z,129.33
2018-12-17T20:07:41.804Z,134.30
2018-12-17T20:10:13.283Z,130.63
2018-12-17T20:12:43.684Z,130.07
2018-12-17T20:15:13.475Z,122.43
2018-12-17T20:17:42.251Z,117.90
2018-12-17T20:20:11.697Z,120.40
2018-12-17T20:22:44.405Z,116.73
2018-12-17T20:25:15.005Z,114.93
2018-12-17T20:27:43.716Z,99.83
2018-12-17T20:30:12.275Z,109.73
2018-12-17T20:32:41.956Z,94.73
2018-12-17T20:35:12.141Z,90.30
2018-12-17T20:37:40.820Z,94.47
2018-12-17T20:40:10.564Z,93.93
2018-12-17T20:42:39.205Z,94.83
2018-12-17T20:45:07.805Z,94.13
2018-12-17T20:47:37.572Z,98.57
2018-12-17T20:50:06.700Z,100.57
2018-12-17T20:52:35.508Z,104.60
2018-12-17T20:55:06.845Z,108.87
2018-12-17T20:57:35.445Z,112.43
2018-12-17T21:00:06.635Z,111.47
2018-12-17T21:02:36.811Z,109.90
2018-12-17T21:05:05.900Z,107.87
2018-12-17T21:07:36.714Z,107.13
2018-12-17T21:10:07.484Z,108.63
2018-12-17T21:12:37.845Z,94.73
2018-12-17T21:15:06.333Z,95.50
2018-12-17T21:17:35.021Z,91.87
2018-12-17T21:20:05.667Z,94.10
2018-12-17T21:22:34.206Z,90.90
2018-12-17T21:25:02.730Z,85.07
2018-12-17T21:27:31.225Z,91.43
2018-12-17T21:29:59.622Z,90.73
2018-12-17T21:32:28.566Z,93.00
2018-12-17T21:34:57.754Z,83.87
2018-12-17T21:37:26.234Z,93.80
2018-12-17T21:39:54.795Z,81.87
2018-12-17T21:42:24.532Z,86.57
2018-12-17T21:44:56.140Z,83.87
2018-12-17T21:47:26.614Z,84.17
2018-12-17T21:49:56.400Z,84.63
2018-12-17T21:52:26.518Z,81.83
2018-12-17T21:54:55.225Z,79.63
2018-12-17T21:57:24.507Z,81.43
2018-12-17T21:59:54.198Z,78.00
2018-12-17T22:02:24.553Z,84.43
2018-12-17T22:04:54.182Z,77.43
2018-12-17T22:07:23.475Z,77.07
2018-12-17T22:09:51.952Z,76.90
2018-12-17T22:12:20.618Z,85.93
2018-12-17T22:14:49.667Z,73.23
2018-12-17T22:17:18.620Z,77.93
2018-12-17T22:19:47.481Z,76.27
2018-12-17T22:22:19.757Z,72.10
2018-12-17T22:24:48.781Z,75.83
2018-12-17T22:27:17.446Z,73.57
2018-12-17T22:29:45.893Z,74.10
2018-12-17T22:32:14.874Z,75.60
2018-12-17T22:34:43.212Z,72.27
2018-12-17T22:37:11.617Z,73.67
2018-12-17T22:39:39.946Z,78.10
2018-12-17T22:42:08.424Z,77.33
2018-12-17T22:44:37.542Z,78.27
2018-12-17T22:47:07.347Z,75.93
2018-12-17T22:49:35.604Z,76.90
2018-12-17T22:52:04.127Z,77.03
2018-12-17T22:54:32.458Z,75.73
2018-12-17T22:57:00.836Z,76.33
2018-12-17T22:59:29.043Z,86.47
2018-12-17T23:01:57.194Z,86.87
2018-12-17T23:04:25.674Z,89.90
2018-12-17T23:06:54.153Z,91.47
2018-12-17T23:09:22.353Z,88.17
2018-12-17T23:12:02.799Z,87.90
2018-12-17T23:14:37.073Z,80.73
2018-12-17T23:17:11.727Z,85.40
2018-12-17T23:19:41.748Z,88.20
2018-12-17T23:22:12.196Z,79.37
2018-12-17T23:24:43.440Z,77.10
2018-12-17T23:27:11.835Z,78.20
2018-12-17T23:29:40.214Z,75.90
2018-12-17T23:32:08.400Z,76.60
2018-12-17T23:34:36.602Z,76.00
2018-12-17T23:37:04.949Z,71.17
2018-12-17T23:39:34.174Z,67.77
2018-12-17T23:42:02.790Z,65.03
2018-12-17T23:44:33.004Z,57.87
2018-12-17T23:47:01.368Z,61.67
2018-12-17T23:49:29.797Z,64.90
2018-12-17T23:51:58.062Z,60.07
2018-12-17T23:54:26.225Z,60.67
2018-12-17T23:56:54.619Z,59.03
2018-12-17T23:59:23.749Z,63.83
